createdAt,value
2022-11-07T00:00:02.000Z,7.5
2022-11-07T00:00:35.000Z,7.5
2022-11-07T00:01:10.000Z,7.5
2022-11-07T00:01:49.000Z,7.5
2022-11-07T00:02:19.000Z,7.5
2022-11-07T00:02:46.000Z,7.5
2022-11-07T00:03:12.000Z,7.5
2022-11-07T00:03:39.000Z,7.5
2022-11-07T00:04:06.000Z,7.5
2022-11-07T00:04:32.000Z,7.5
2022-11-07T00:04:59.000Z,7.5
2022-11-07T00:05:24.000Z,7.5
2022-11-07T00:05:50.000Z,7.5
2022-11-07T00:06:30.000Z,7.5
2022-11-07T00:06:51.000Z,7.5
2022-11-07T00:07:15.000Z,7.5
2022-11-07T00:07:45.000Z,7.5
2022-11-07T00:08:01.000Z,7.5
2022-11-07T00:08:35.000Z,7.5
2022-11-07T00:09:10.000Z,7.5
2022-11-07T00:09:40.000Z,7.5
2022-11-07T00:10:10.000Z,7.5
2022-11-07T00:10:45.000Z,7.5
2022-11-07T00:11:15.000Z,7.5
2022-11-07T00:11:45.000Z,7.3888888888888875
2022-11-07T00:12:20.000Z,7.3888888888888875
2022-11-07T00:12:50.000Z,7.3888888888888875
2022-11-07T00:13:34.000Z,7.3888888888888875
2022-11-07T00:14:04.000Z,7.3888888888888875
2022-11-07T00:14:27.000Z,7.3888888888888875
2022-11-07T00:14:54.000Z,7.6111111111111125
2022-11-07T00:15:17.000Z,7.277777777777778
2022-11-07T00:15:45.000Z,7.5
2022-11-07T00:16:20.000Z,7.5
2022-11-07T00:16:50.000Z,7.5
2022-11-07T00:17:25.000Z,7.5
2022-11-07T00:17:55.000Z,7.5
2022-11-07T00:18:25.000Z,7.5
2022-11-07T00:18:51.000Z,7.5
2022-11-07T00:19:15.000Z,7.5
2022-11-07T00:19:45.000Z,7.5
2022-11-07T00:20:20.000Z,7.5
2022-11-07T00:20:50.000Z,7.5
2022-11-07T00:21:25.000Z,7.5
2022-11-07T00:21:55.000Z,7.5
2022-11-07T00:22:30.000Z,7.5
2022-11-07T00:22:52.000Z,7.5
2022-11-07T00:23:12.000Z,7.5
2022-11-07T00:23:45.000Z,7.5
2022-11-07T00:24:20.000Z,7.5
2022-11-07T00:24:50.000Z,7.5
2022-11-07T00:25:25.000Z,7.6111111111111125
2022-11-07T00:25:55.000Z,7.6111111111111125
2022-11-07T00:26:25.000Z,7.6111111111111125
2022-11-07T00:26:52.000Z,7.6111111111111125
2022-11-07T00:27:15.000Z,7.6111111111111125
2022-11-07T00:27:45.000Z,7.6111111111111125
2022-11-07T00:28:20.000Z,7.6111111111111125
2022-11-07T00:28:50.000Z,7.6111111111111125
2022-11-07T00:29:25.000Z,7.6111111111111125
2022-11-07T00:30:04.000Z,7.6111111111111125
2022-11-07T00:30:27.000Z,7.6111111111111125
2022-11-07T00:30:54.000Z,7.6111111111111125
2022-11-07T00:31:28.000Z,7.722222222222222
2022-11-07T00:31:54.000Z,7.722222222222222
2022-11-07T00:32:19.000Z,7.6111111111111125
2022-11-07T00:32:48.000Z,7.6111111111111125
2022-11-07T00:33:11.000Z,7.722222222222222
2022-11-07T00:33:41.000Z,7.722222222222222
2022-11-07T00:34:04.000Z,7.722222222222222
2022-11-07T00:34:27.000Z,7.722222222222222
2022-11-07T00:34:52.000Z,7.722222222222222
2022-11-07T00:35:15.000Z,7.722222222222222
2022-11-07T00:35:45.000Z,7.722222222222222
2022-11-07T00:36:20.000Z,7.722222222222222
2022-11-07T00:36:50.000Z,7.722222222222222
2022-11-07T00:37:25.000Z,7.722222222222222
2022-11-07T00:37:55.000Z,7.722222222222222
2022-11-07T00:38:25.000Z,7.722222222222222
2022-11-07T00:38:51.000Z,7.722222222222222
2022-11-07T00:39:15.000Z,7.722222222222222
2022-11-07T00:39:45.000Z,7.722222222222222
2022-11-07T00:40:20.000Z,7.722222222222222
2022-11-07T00:40:50.000Z,7.722222222222222
2022-11-07T00:41:34.000Z,7.722222222222222
2022-11-07T00:42:04.000Z,7.722222222222222
2022-11-07T00:42:27.000Z,7.722222222222222
2022-11-07T00:42:54.000Z,7.722222222222222
2022-11-07T00:43:28.000Z,7.722222222222222
2022-11-07T00:43:54.000Z,7.722222222222222
2022-11-07T00:44:20.000Z,7.722222222222222
2022-11-07T00:44:50.000Z,7.722222222222222
2022-11-07T00:45:25.000Z,7.722222222222222
2022-11-07T00:45:55.000Z,7.722222222222222
2022-11-07T00:46:25.000Z,7.722222222222222
2022-11-07T00:46:45.000Z,7.722222222222222
2022-11-07T00:47:15.000Z,7.722222222222222
2022-11-07T00:47:45.000Z,7.722222222222222
2022-11-07T00:48:20.000Z,7.722222222222222
2022-11-07T00:48:50.000Z,7.722222222222222
2022-11-07T00:49:25.000Z,7.722222222222222
2022-11-07T00:49:55.000Z,7.722222222222222
2022-11-07T00:50:26.000Z,7.722222222222222
2022-11-07T00:50:54.000Z,7.722222222222222
2022-11-07T00:51:15.000Z,7.722222222222222
2022-11-07T00:51:45.000Z,7.722222222222222
2022-11-07T00:52:01.000Z,7.722222222222222
2022-11-07T00:52:35.000Z,7.722222222222222
2022-11-07T00:53:10.000Z,7.722222222222222
2022-11-07T00:53:40.000Z,7.722222222222222
2022-11-07T00:54:10.000Z,7.722222222222222
2022-11-07T00:54:45.000Z,7.722222222222222
2022-11-07T00:55:15.000Z,7.722222222222222
2022-11-07T00:55:45.000Z,7.722222222222222
2022-11-07T00:56:02.000Z,7.722222222222222
2022-11-07T00:56:35.000Z,7.722222222222222
2022-11-07T00:57:10.000Z,7.722222222222222
2022-11-07T00:57:50.000Z,7.777777777777778
2022-11-07T00:58:20.000Z,7.777777777777778
2022-11-07T00:58:46.000Z,7.777777777777778
2022-11-07T00:59:12.000Z,7.777777777777778
2022-11-07T00:59:40.000Z,7.777777777777778
2022-11-07T01:00:07.000Z,7.777777777777778
2022-11-07T01:00:36.000Z,7.777777777777778
2022-11-07T01:01:00.000Z,7.777777777777778
2022-11-07T01:01:25.000Z,7.777777777777778
2022-11-07T01:01:50.000Z,7.777777777777778
2022-11-07T01:02:20.000Z,7.777777777777778
2022-11-07T01:02:46.000Z,7.777777777777778
2022-11-07T01:03:15.000Z,7.777777777777778
2022-11-07T01:03:45.000Z,7.777777777777778
2022-11-07T01:04:01.000Z,7.777777777777778
2022-11-07T01:04:35.000Z,7.777777777777778
2022-11-07T01:05:10.000Z,7.777777777777778
2022-11-07T01:05:40.000Z,7.777777777777778
2022-11-07T01:05:55.000Z,7.777777777777778
2022-11-07T01:06:25.000Z,7.777777777777778
2022-11-07T01:06:45.000Z,7.777777777777778
2022-11-07T01:07:15.000Z,7.777777777777778
2022-11-07T01:07:45.000Z,7.777777777777778
2022-11-07T01:08:02.000Z,7.777777777777778
2022-11-07T01:08:35.000Z,7.777777777777778
2022-11-07T01:09:15.000Z,7.777777777777778
2022-11-07T01:09:41.000Z,7.777777777777778
2022-11-07T01:10:05.000Z,7.777777777777778
2022-11-07T01:10:25.000Z,7.777777777777778
2022-11-07T01:10:45.000Z,7.777777777777778
2022-11-07T01:11:15.000Z,7.777777777777778
2022-11-07T01:11:45.000Z,7.777777777777778
2022-11-07T01:12:01.000Z,7.777777777777778
2022-11-07T01:12:35.000Z,7.777777777777778
2022-11-07T01:12:56.000Z,7.777777777777778
2022-11-07T01:13:25.000Z,7.777777777777778
2022-11-07T01:13:55.000Z,7.777777777777778
2022-11-07T01:14:25.000Z,7.777777777777778
2022-11-07T01:14:45.000Z,7.777777777777778
2022-11-07T01:15:15.000Z,7.777777777777778
2022-11-07T01:15:45.000Z,7.777777777777778
2022-11-07T01:16:20.000Z,7.777777777777778
2022-11-07T01:16:59.000Z,7.777777777777778
2022-11-07T01:17:25.000Z,7.777777777777778
2022-11-07T01:17:55.000Z,7.777777777777778
2022-11-07T01:18:25.000Z,7.777777777777778
2022-11-07T01:18:51.000Z,7.777777777777778
2022-11-07T01:19:15.000Z,7.777777777777778
2022-11-07T01:19:45.000Z,7.777777777777778
2022-11-07T01:20:20.000Z,7.777777777777778
2022-11-07T01:20:50.000Z,7.777777777777778
2022-11-07T01:21:25.000Z,7.777777777777778
2022-11-07T01:21:55.000Z,7.777777777777778
2022-11-07T01:22:25.000Z,7.777777777777778
2022-11-07T01:22:45.000Z,7.777777777777778
2022-11-07T01:23:15.000Z,7.777777777777778
2022-11-07T01:23:46.000Z,7.777777777777778
2022-11-07T01:24:20.000Z,8.0
2022-11-07T01:24:59.000Z,7.777777777777778
2022-11-07T01:25:24.000Z,7.722222222222222
2022-11-07T01:25:50.000Z,7.88888888888889
2022-11-07T01:26:19.000Z,7.722222222222222
2022-11-07T01:26:46.000Z,7.722222222222222
2022-11-07T01:27:12.000Z,7.722222222222222
2022-11-07T01:27:39.000Z,7.722222222222222
2022-11-07T01:28:06.000Z,7.88888888888889
2022-11-07T01:28:34.000Z,7.88888888888889
2022-11-07T01:28:59.000Z,7.88888888888889
2022-11-07T01:29:24.000Z,7.88888888888889
2022-11-07T01:29:50.000Z,7.88888888888889
2022-11-07T01:30:19.000Z,7.722222222222222
2022-11-07T01:30:46.000Z,7.88888888888889
2022-11-07T01:31:15.000Z,7.722222222222222
2022-11-07T01:31:45.000Z,7.88888888888889
2022-11-07T01:32:01.000Z,7.88888888888889
2022-11-07T01:32:20.000Z,7.88888888888889
2022-11-07T01:32:50.000Z,7.88888888888889
2022-11-07T01:33:25.000Z,7.88888888888889
2022-11-07T01:33:55.000Z,7.88888888888889
2022-11-07T01:34:25.000Z,7.722222222222222
2022-11-07T01:34:45.000Z,7.777777777777778
2022-11-07T01:35:15.000Z,7.777777777777778
2022-11-07T01:35:45.000Z,7.777777777777778
2022-11-07T01:36:20.000Z,7.777777777777778
2022-11-07T01:36:50.000Z,8.0
2022-11-07T01:37:24.000Z,7.777777777777778
2022-11-07T01:37:50.000Z,8.0
2022-11-07T01:38:19.000Z,8.0
2022-11-07T01:38:46.000Z,8.0
2022-11-07T01:39:12.000Z,7.88888888888889
2022-11-07T01:39:39.000Z,7.88888888888889
2022-11-07T01:40:06.000Z,7.88888888888889
2022-11-07T01:40:32.000Z,7.88888888888889
2022-11-07T01:40:59.000Z,7.88888888888889
2022-11-07T01:41:24.000Z,7.88888888888889
2022-11-07T01:41:50.000Z,7.88888888888889
2022-11-07T01:42:10.000Z,7.88888888888889
2022-11-07T01:42:45.000Z,7.88888888888889
2022-11-07T01:43:15.000Z,7.88888888888889
2022-11-07T01:43:45.000Z,7.88888888888889
2022-11-07T01:44:20.000Z,7.777777777777778
2022-11-07T01:44:50.000Z,7.777777777777778
2022-11-07T01:45:25.000Z,7.777777777777778
2022-11-07T01:45:55.000Z,7.777777777777778
2022-11-07T01:46:25.000Z,7.88888888888889
2022-11-07T01:46:51.000Z,7.88888888888889
2022-11-07T01:47:15.000Z,7.88888888888889
2022-11-07T01:47:45.000Z,7.88888888888889
2022-11-07T01:48:20.000Z,7.88888888888889
2022-11-07T01:48:59.000Z,7.777777777777778
2022-11-07T01:49:25.000Z,7.777777777777778
2022-11-07T01:49:55.000Z,7.777777777777778
2022-11-07T01:50:25.000Z,7.777777777777778
2022-11-07T01:50:51.000Z,7.88888888888889
2022-11-07T01:51:15.000Z,7.777777777777778
2022-11-07T01:51:45.000Z,7.777777777777778
2022-11-07T01:52:20.000Z,7.777777777777778
2022-11-07T01:52:50.000Z,7.777777777777778
2022-11-07T01:53:25.000Z,7.777777777777778
2022-11-07T01:53:55.000Z,7.777777777777778
2022-11-07T01:54:25.000Z,7.777777777777778
2022-11-07T01:54:51.000Z,7.777777777777778
2022-11-07T01:55:15.000Z,7.777777777777778
2022-11-07T01:55:46.000Z,7.777777777777778
2022-11-07T01:56:20.000Z,7.777777777777778
2022-11-07T01:56:50.000Z,7.777777777777778
2022-11-07T01:57:25.000Z,7.777777777777778
2022-11-07T01:57:55.000Z,7.777777777777778
2022-11-07T01:58:25.000Z,7.777777777777778
2022-11-07T01:58:51.000Z,7.777777777777778
2022-11-07T01:59:15.000Z,7.777777777777778
2022-11-07T01:59:45.000Z,7.777777777777778
2022-11-07T02:00:20.000Z,7.777777777777778
2022-11-07T02:00:50.000Z,7.88888888888889
2022-11-07T02:01:34.000Z,7.88888888888889
2022-11-07T02:01:55.000Z,7.88888888888889
2022-11-07T02:02:25.000Z,7.88888888888889
2022-11-07T02:03:01.000Z,7.777777777777778
2022-11-07T02:03:28.000Z,7.777777777777778
2022-11-07T02:03:54.000Z,7.777777777777778
2022-11-07T02:04:19.000Z,7.777777777777778
2022-11-07T02:04:48.000Z,7.777777777777778
2022-11-07T02:05:11.000Z,7.777777777777778
2022-11-07T02:05:36.000Z,7.777777777777778
2022-11-07T02:06:04.000Z,7.777777777777778
2022-11-07T02:06:27.000Z,7.777777777777778
2022-11-07T02:06:54.000Z,7.777777777777778
2022-11-07T02:07:17.000Z,7.777777777777778
2022-11-07T02:07:44.000Z,7.722222222222222
2022-11-07T02:08:11.000Z,7.722222222222222
2022-11-07T02:08:36.000Z,7.722222222222222
2022-11-07T02:08:59.000Z,7.722222222222222
2022-11-07T02:09:24.000Z,7.722222222222222
2022-11-07T02:09:50.000Z,7.722222222222222
2022-11-07T02:10:10.000Z,7.722222222222222
2022-11-07T02:10:45.000Z,7.722222222222222
2022-11-07T02:11:15.000Z,7.722222222222222
2022-11-07T02:11:45.000Z,7.722222222222222
2022-11-07T02:12:01.000Z,7.722222222222222
2022-11-07T02:12:35.000Z,7.722222222222222
2022-11-07T02:12:56.000Z,7.722222222222222
2022-11-07T02:13:25.000Z,7.722222222222222
2022-11-07T02:13:55.000Z,7.722222222222222
2022-11-07T02:14:25.000Z,7.722222222222222
2022-11-07T02:14:45.000Z,7.722222222222222
2022-11-07T02:15:15.000Z,7.722222222222222
2022-11-07T02:15:45.000Z,7.722222222222222
2022-11-07T02:16:20.000Z,7.722222222222222
2022-11-07T02:16:59.000Z,7.722222222222222
2022-11-07T02:17:24.000Z,7.722222222222222
2022-11-07T02:17:50.000Z,7.722222222222222
2022-11-07T02:18:19.000Z,7.722222222222222
2022-11-07T02:18:46.000Z,7.722222222222222
2022-11-07T02:19:12.000Z,7.722222222222222
2022-11-07T02:19:30.000Z,7.722222222222222
2022-11-07T02:19:55.000Z,7.722222222222222
2022-11-07T02:20:20.000Z,7.722222222222222
2022-11-07T02:20:50.000Z,7.722222222222222
2022-11-07T02:21:25.000Z,7.722222222222222
2022-11-07T02:21:55.000Z,7.722222222222222
2022-11-07T02:22:25.000Z,7.6111111111111125
2022-11-07T02:22:52.000Z,7.6111111111111125
2022-11-07T02:23:15.000Z,7.6111111111111125
2022-11-07T02:23:45.000Z,7.6111111111111125
2022-11-07T02:24:20.000Z,7.6111111111111125
2022-11-07T02:24:50.000Z,7.777777777777778
2022-11-07T02:25:25.000Z,7.6111111111111125
2022-11-07T02:26:04.000Z,7.777777777777778
2022-11-07T02:26:27.000Z,7.6111111111111125
2022-11-07T02:26:54.000Z,7.6111111111111125
2022-11-07T02:27:15.000Z,7.777777777777778
2022-11-07T02:27:45.000Z,7.777777777777778
2022-11-07T02:28:01.000Z,7.777777777777778
2022-11-07T02:28:35.000Z,7.777777777777778
2022-11-07T02:29:10.000Z,7.6111111111111125
2022-11-07T02:29:40.000Z,7.777777777777778
2022-11-07T02:30:10.000Z,7.6111111111111125
2022-11-07T02:30:45.000Z,7.722222222222222
2022-11-07T02:31:15.000Z,7.722222222222222
2022-11-07T02:31:45.000Z,7.722222222222222
2022-11-07T02:32:02.000Z,7.722222222222222
2022-11-07T02:32:35.000Z,7.88888888888889
2022-11-07T02:32:50.000Z,7.777777777777778
2022-11-07T02:33:34.000Z,7.777777777777778
2022-11-07T02:33:55.000Z,7.777777777777778
2022-11-07T02:34:25.000Z,7.777777777777778
2022-11-07T02:34:51.000Z,7.777777777777778
2022-11-07T02:35:15.000Z,7.777777777777778
2022-11-07T02:35:45.000Z,7.777777777777778
2022-11-07T02:36:01.000Z,7.777777777777778
2022-11-07T02:36:35.000Z,7.777777777777778
2022-11-07T02:37:10.000Z,7.777777777777778
2022-11-07T02:37:40.000Z,7.777777777777778
2022-11-07T02:38:10.000Z,7.722222222222222
2022-11-07T02:38:45.000Z,7.722222222222222
2022-11-07T02:39:15.000Z,7.722222222222222
2022-11-07T02:39:45.000Z,7.722222222222222
2022-11-07T02:40:01.000Z,7.722222222222222
2022-11-07T02:40:19.000Z,7.722222222222222
2022-11-07T02:40:48.000Z,7.88888888888889
2022-11-07T02:41:11.000Z,7.88888888888889
2022-11-07T02:41:39.000Z,7.722222222222222
2022-11-07T02:42:10.000Z,7.722222222222222
2022-11-07T02:42:45.000Z,7.88888888888889
2022-11-07T02:43:15.000Z,7.88888888888889
2022-11-07T02:43:45.000Z,7.777777777777778
2022-11-07T02:44:20.000Z,7.777777777777778
2022-11-07T02:44:50.000Z,7.777777777777778
2022-11-07T02:45:25.000Z,7.777777777777778
2022-11-07T02:45:55.000Z,7.777777777777778
2022-11-07T02:46:25.000Z,7.777777777777778
2022-11-07T02:46:52.000Z,7.6111111111111125
2022-11-07T02:47:15.000Z,7.88888888888889
2022-11-07T02:47:45.000Z,7.722222222222222
2022-11-07T02:48:01.000Z,7.722222222222222
2022-11-07T02:48:44.000Z,7.722222222222222
2022-11-07T02:49:11.000Z,7.722222222222222
2022-11-07T02:49:36.000Z,7.722222222222222
2022-11-07T02:50:04.000Z,7.722222222222222
2022-11-07T02:50:27.000Z,7.722222222222222
2022-11-07T02:50:54.000Z,7.722222222222222
2022-11-07T02:51:28.000Z,7.722222222222222
2022-11-07T02:51:54.000Z,7.722222222222222
2022-11-07T02:52:19.000Z,7.88888888888889
2022-11-07T02:52:48.000Z,7.722222222222222
2022-11-07T02:53:11.000Z,7.722222222222222
2022-11-07T02:53:39.000Z,7.722222222222222
2022-11-07T02:54:04.000Z,7.722222222222222
2022-11-07T02:54:27.000Z,7.722222222222222
2022-11-07T02:54:54.000Z,7.722222222222222
2022-11-07T02:55:17.000Z,7.722222222222222
2022-11-07T02:55:44.000Z,7.722222222222222
2022-11-07T02:56:20.000Z,7.777777777777778
2022-11-07T02:56:59.000Z,7.777777777777778
2022-11-07T02:57:25.000Z,7.777777777777778
2022-11-07T02:57:55.000Z,7.777777777777778
2022-11-07T02:58:25.000Z,7.777777777777778
2022-11-07T02:58:51.000Z,7.777777777777778
2022-11-07T02:59:15.000Z,7.777777777777778
2022-11-07T02:59:45.000Z,7.777777777777778
2022-11-07T03:00:20.000Z,7.777777777777778
2022-11-07T03:00:51.000Z,7.777777777777778
2022-11-07T03:01:25.000Z,7.777777777777778
2022-11-07T03:01:55.000Z,7.777777777777778
2022-11-07T03:02:25.000Z,7.777777777777778
2022-11-07T03:02:51.000Z,7.777777777777778
2022-11-07T03:03:15.000Z,7.777777777777778
2022-11-07T03:03:50.000Z,7.777777777777778
2022-11-07T03:04:29.000Z,7.777777777777778
2022-11-07T03:04:59.000Z,7.777777777777778
2022-11-07T03:05:24.000Z,7.722222222222222
2022-11-07T03:05:50.000Z,7.722222222222222
2022-11-07T03:06:19.000Z,7.722222222222222
2022-11-07T03:06:45.000Z,7.722222222222222
2022-11-07T03:07:15.000Z,7.722222222222222
2022-11-07T03:07:46.000Z,7.88888888888889
2022-11-07T03:08:20.000Z,7.88888888888889
2022-11-07T03:08:50.000Z,7.722222222222222
2022-11-07T03:09:25.000Z,7.722222222222222
2022-11-07T03:09:55.000Z,7.722222222222222
2022-11-07T03:10:25.000Z,7.722222222222222
2022-11-07T03:10:51.000Z,7.722222222222222
2022-11-07T03:11:15.000Z,7.722222222222222
2022-11-07T03:11:45.000Z,7.722222222222222
2022-11-07T03:12:20.000Z,7.722222222222222
2022-11-07T03:12:50.000Z,7.88888888888889
2022-11-07T03:13:34.000Z,7.722222222222222
2022-11-07T03:14:04.000Z,7.722222222222222
2022-11-07T03:14:27.000Z,7.722222222222222
2022-11-07T03:14:54.000Z,7.722222222222222
2022-11-07T03:15:15.000Z,7.722222222222222
2022-11-07T03:15:45.000Z,7.777777777777778
2022-11-07T03:16:20.000Z,7.777777777777778
2022-11-07T03:16:50.000Z,7.777777777777778
2022-11-07T03:17:25.000Z,7.777777777777778
2022-11-07T03:17:55.000Z,7.777777777777778
2022-11-07T03:18:25.000Z,7.777777777777778
2022-11-07T03:18:51.000Z,7.777777777777778
2022-11-07T03:19:16.000Z,7.777777777777778
2022-11-07T03:19:45.000Z,7.777777777777778
2022-11-07T03:20:20.000Z,7.777777777777778
2022-11-07T03:20:50.000Z,7.88888888888889
2022-11-07T03:21:24.000Z,7.88888888888889
2022-11-07T03:21:50.000Z,7.88888888888889
2022-11-07T03:22:19.000Z,7.88888888888889
2022-11-07T03:22:46.000Z,7.88888888888889
2022-11-07T03:23:16.000Z,7.88888888888889
2022-11-07T03:23:45.000Z,7.88888888888889
2022-11-07T03:24:20.000Z,7.88888888888889
2022-11-07T03:24:50.000Z,7.88888888888889
2022-11-07T03:25:25.000Z,7.88888888888889
2022-11-07T03:25:55.000Z,7.88888888888889
2022-11-07T03:26:25.000Z,7.777777777777778
2022-11-07T03:26:52.000Z,7.777777777777778
2022-11-07T03:27:15.000Z,7.777777777777778
2022-11-07T03:27:45.000Z,7.777777777777778
2022-11-07T03:28:20.000Z,7.777777777777778
2022-11-07T03:28:50.000Z,7.777777777777778
2022-11-07T03:29:25.000Z,7.777777777777778
2022-11-07T03:30:04.000Z,8.0
2022-11-07T03:30:27.000Z,8.0
2022-11-07T03:30:54.000Z,7.88888888888889
2022-11-07T03:31:17.000Z,7.88888888888889
2022-11-07T03:31:45.000Z,7.88888888888889
2022-11-07T03:32:20.000Z,7.777777777777778
2022-11-07T03:32:50.000Z,7.777777777777778
2022-11-07T03:33:25.000Z,7.777777777777778
2022-11-07T03:33:55.000Z,7.88888888888889
2022-11-07T03:34:25.000Z,7.88888888888889
2022-11-07T03:34:52.000Z,7.88888888888889
2022-11-07T03:35:15.000Z,7.88888888888889
2022-11-07T03:35:45.000Z,7.88888888888889
2022-11-07T03:36:20.000Z,7.88888888888889
2022-11-07T03:36:50.000Z,7.88888888888889
2022-11-07T03:37:25.000Z,7.88888888888889
2022-11-07T03:38:04.000Z,7.88888888888889
2022-11-07T03:38:25.000Z,7.777777777777778
2022-11-07T03:38:51.000Z,7.777777777777778
2022-11-07T03:39:15.000Z,7.777777777777778
2022-11-07T03:39:45.000Z,7.777777777777778
2022-11-07T03:40:20.000Z,7.777777777777778
2022-11-07T03:40:50.000Z,7.777777777777778
2022-11-07T03:41:25.000Z,7.777777777777778
2022-11-07T03:41:55.000Z,7.777777777777778
2022-11-07T03:42:25.000Z,7.88888888888889
2022-11-07T03:42:52.000Z,7.88888888888889
2022-11-07T03:43:15.000Z,7.88888888888889
2022-11-07T03:43:45.000Z,7.88888888888889
2022-11-07T03:44:20.000Z,7.777777777777778
2022-11-07T03:44:51.000Z,7.777777777777778
2022-11-07T03:45:25.000Z,7.777777777777778
2022-11-07T03:45:55.000Z,7.777777777777778
2022-11-07T03:46:25.000Z,7.88888888888889
2022-11-07T03:46:52.000Z,7.88888888888889
2022-11-07T03:47:15.000Z,7.88888888888889
2022-11-07T03:47:45.000Z,7.88888888888889
2022-11-07T03:48:20.000Z,7.88888888888889
2022-11-07T03:48:50.000Z,7.88888888888889
2022-11-07T03:49:25.000Z,7.88888888888889
2022-11-07T03:49:55.000Z,7.88888888888889
2022-11-07T03:50:25.000Z,7.88888888888889
2022-11-07T03:50:52.000Z,7.88888888888889
2022-11-07T03:51:15.000Z,7.88888888888889
2022-11-07T03:51:45.000Z,7.88888888888889
2022-11-07T03:52:30.000Z,7.88888888888889
2022-11-07T03:53:00.000Z,7.88888888888889
2022-11-07T03:53:25.000Z,7.777777777777778
2022-11-07T03:53:50.000Z,7.777777777777778
2022-11-07T03:54:20.000Z,7.777777777777778
2022-11-07T03:54:46.000Z,8.0
2022-11-07T03:55:12.000Z,7.722222222222222
2022-11-07T03:55:50.000Z,7.722222222222222
2022-11-07T03:56:30.000Z,7.777777777777778
2022-11-07T03:57:00.000Z,7.777777777777778
2022-11-07T03:57:25.000Z,7.88888888888889
2022-11-07T03:57:50.000Z,7.88888888888889
2022-11-07T03:58:20.000Z,7.88888888888889
2022-11-07T03:58:46.000Z,7.88888888888889
2022-11-07T03:59:12.000Z,7.777777777777778
2022-11-07T03:59:40.000Z,7.88888888888889
2022-11-07T04:00:06.000Z,7.88888888888889
2022-11-07T04:00:35.000Z,7.88888888888889
2022-11-07T04:00:56.000Z,7.88888888888889
2022-11-07T04:01:25.000Z,7.88888888888889
2022-11-07T04:01:56.000Z,7.88888888888889
2022-11-07T04:02:25.000Z,7.88888888888889
2022-11-07T04:02:52.000Z,7.88888888888889
2022-11-07T04:03:15.000Z,7.88888888888889
2022-11-07T04:03:45.000Z,7.88888888888889
2022-11-07T04:04:20.000Z,7.88888888888889
2022-11-07T04:04:50.000Z,7.88888888888889
2022-11-07T04:05:25.000Z,7.777777777777778
2022-11-07T04:05:55.000Z,7.777777777777778
2022-11-07T04:06:25.000Z,7.777777777777778
2022-11-07T04:06:51.000Z,7.777777777777778
2022-11-07T04:07:15.000Z,7.777777777777778
2022-11-07T04:08:00.000Z,8.0
2022-11-07T04:08:22.000Z,7.88888888888889
2022-11-07T04:08:50.000Z,7.88888888888889
2022-11-07T04:09:20.000Z,7.88888888888889
2022-11-07T04:09:40.000Z,7.88888888888889
2022-11-07T04:10:05.000Z,7.722222222222222
2022-11-07T04:10:25.000Z,7.722222222222222
2022-11-07T04:10:52.000Z,7.722222222222222
2022-11-07T04:11:15.000Z,7.777777777777778
2022-11-07T04:11:45.000Z,7.88888888888889
2022-11-07T04:12:20.000Z,7.88888888888889
2022-11-07T04:12:50.000Z,7.88888888888889
2022-11-07T04:13:25.000Z,7.88888888888889
2022-11-07T04:13:55.000Z,7.88888888888889
2022-11-07T04:14:25.000Z,7.88888888888889
2022-11-07T04:14:51.000Z,7.88888888888889
2022-11-07T04:15:15.000Z,7.777777777777778
2022-11-07T04:15:45.000Z,7.777777777777778
2022-11-07T04:16:01.000Z,7.777777777777778
2022-11-07T04:16:35.000Z,7.777777777777778
2022-11-07T04:17:10.000Z,7.777777777777778
2022-11-07T04:17:40.000Z,7.777777777777778
2022-11-07T04:17:55.000Z,7.88888888888889
2022-11-07T04:18:25.000Z,7.88888888888889
2022-11-07T04:18:45.000Z,7.88888888888889
2022-11-07T04:19:15.000Z,7.88888888888889
2022-11-07T04:19:45.000Z,7.88888888888889
2022-11-07T04:20:20.000Z,7.88888888888889
2022-11-07T04:20:50.000Z,7.88888888888889
2022-11-07T04:21:25.000Z,7.88888888888889
2022-11-07T04:21:55.000Z,7.88888888888889
2022-11-07T04:22:25.000Z,7.88888888888889
2022-11-07T04:22:45.000Z,7.88888888888889
2022-11-07T04:23:15.000Z,7.88888888888889
2022-11-07T04:23:45.000Z,7.777777777777778
2022-11-07T04:24:20.000Z,7.777777777777778
2022-11-07T04:24:50.000Z,7.777777777777778
2022-11-07T04:25:25.000Z,7.777777777777778
2022-11-07T04:25:55.000Z,7.777777777777778
2022-11-07T04:26:25.000Z,7.88888888888889
2022-11-07T04:26:52.000Z,7.88888888888889
2022-11-07T04:27:15.000Z,7.88888888888889
2022-11-07T04:27:45.000Z,7.88888888888889
2022-11-07T04:28:01.000Z,7.88888888888889
2022-11-07T04:28:35.000Z,7.88888888888889
2022-11-07T04:29:10.000Z,7.88888888888889
2022-11-07T04:29:36.000Z,7.777777777777778
2022-11-07T04:30:05.000Z,7.777777777777778
2022-11-07T04:30:27.000Z,7.777777777777778
2022-11-07T04:30:55.000Z,7.777777777777778
2022-11-07T04:31:12.000Z,7.777777777777778
2022-11-07T04:31:30.000Z,7.777777777777778
2022-11-07T04:31:55.000Z,7.777777777777778
2022-11-07T04:32:20.000Z,7.777777777777778
2022-11-07T04:32:50.000Z,7.777777777777778
2022-11-07T04:33:25.000Z,7.777777777777778
2022-11-07T04:33:55.000Z,7.777777777777778
2022-11-07T04:34:25.000Z,7.777777777777778
2022-11-07T04:34:45.000Z,8.0
2022-11-07T04:35:15.000Z,7.88888888888889
2022-11-07T04:35:45.000Z,7.722222222222222
2022-11-07T04:36:01.000Z,7.722222222222222
2022-11-07T04:36:35.000Z,7.722222222222222
2022-11-07T04:36:56.000Z,7.722222222222222